sensor_id;sensor_type;location;lat;lon;timestamp;temperature;humidity
17988;DHT22;9119;50.932;5.342;2023-04-08T00:00:43;9.50;99.90
17988;DHT22;9119;50.932;5.342;2023-04-08T00:03:09;9.50;99.90
17988;DHT22;9119;50.932;5.342;2023-04-08T00:05:35;9.60;99.90
17988;DHT22;9119;50.932;5.342;2023-04-08T00:08:01;9.60;99.90
17988;DHT22;9119;50.932;5.342;2023-04-08T00:10:27;9.60;99.90
17988;DHT22;9119;50.932;5.342;2023-04-08T00:12:52;9.60;99.90
17988;DHT22;9119;50.932;5.342;2023-04-08T00:15:18;9.60;99.90
17988;DHT22;9119;50.932;5.342;2023-04-08T00:17:44;9.50;99.90
17988;DHT22;9119;50.932;5.342;2023-04-08T00:20:10;9.40;99.90
17988;DHT22;9119;50.932;5.342;2023-04-08T00:22:36;9.60;99.90
17988;DHT22;9119;50.932;5.342;2023-04-08T00:25:02;9.40;99.90
17988;DHT22;9119;50.932;5.342;2023-04-08T00:27:31;9.40;99.90
17988;DHT22;9119;50.932;5.342;2023-04-08T00:29:57;9.30;99.90
17988;DHT22;9119;50.932;5.342;2023-04-08T00:32:25;9.40;99.90
17988;DHT22;9119;50.932;5.342;2023-04-08T00:34:51;9.40;99.90
17988;DHT22;9119;50.932;5.342;2023-04-08T00:37:17;9.50;99.90
17988;DHT22;9119;50.932;5.342;2023-04-08T00:39:43;9.50;99.90
17988;DHT22;9119;50.932;5.342;2023-04-08T00:42:09;9.50;99.90
17988;DHT22;9119;50.932;5.342;2023-04-08T00:44:34;9.50;99.90
17988;DHT22;9119;50.932;5.342;2023-04-08T00:47:00;9.50;99.90
17988;DHT22;9119;50.932;5.342;2023-04-08T00:49:26;9.50;99.90
17988;DHT22;9119;50.932;5.342;2023-04-08T00:51:53;9.50;99.90
17988;DHT22;9119;50.932;5.342;2023-04-08T00:54:19;9.40;99.90
17988;DHT22;9119;50.932;5.342;2023-04-08T00:56:45;9.40;99.90
17988;DHT22;9119;50.932;5.342;2023-04-08T00:59:11;9.40;99.90
17988;DHT22;9119;50.932;5.342;2023-04-08T01:04:47;9.40;99.90
17988;DHT22;9119;50.932;5.342;2023-04-08T01:07:19;9.40;99.90
17988;DHT22;9119;50.932;5.342;2023-04-08T01:09:58;9.30;99.90
17988;DHT22;9119;50.932;5.342;2023-04-08T01:12:28;9.20;99.90
17988;DHT22;9119;50.932;5.342;2023-04-08T01:15:15;9.20;99.90
17988;DHT22;9119;50.932;5.342;2023-04-08T01:17:42;9.20;99.90
17988;DHT22;9119;50.932;5.342;2023-04-08T01:20:09;9.10;99.90
17988;DHT22;9119;50.932;5.342;2023-04-08T01:23:02;9.10;99.90
17988;DHT22;9119;50.932;5.342;2023-04-08T01:25:37;9.00;99.90
17988;DHT22;9119;50.932;5.342;2023-04-08T01:28:05;9.00;99.90
17988;DHT22;9119;50.932;5.342;2023-04-08T01:30:33;9.10;99.90
17988;DHT22;9119;50.932;5.342;2023-04-08T01:33:01;9.10;99.90
17988;DHT22;9119;50.932;5.342;2023-04-08T01:35:27;9.20;99.90
17988;DHT22;9119;50.932;5.342;2023-04-08T01:37:55;9.10;99.90
17988;DHT22;9119;50.932;5.342;2023-04-08T01:40:21;9.00;99.90
17988;DHT22;9119;50.932;5.342;2023-04-08T01:42:48;9.00;99.90
17988;DHT22;9119;50.932;5.342;2023-04-08T01:45:16;9.00;99.90
17988;DHT22;9119;50.932;5.342;2023-04-08T01:47:44;9.10;99.90
17988;DHT22;9119;50.932;5.342;2023-04-08T01:50:12;9.10;99.90
17988;DHT22;9119;50.932;5.342;2023-04-08T01:52:39;9.20;99.90
17988;DHT22;9119;50.932;5.342;2023-04-08T01:55:06;9.20;99.90
17988;DHT22;9119;50.932;5.342;2023-04-08T01:57:36;9.20;99.90
17988;DHT22;9119;50.932;5.342;2023-04-08T02:00:07;9.30;99.90
17988;DHT22;9119;50.932;5.342;2023-04-08T02:02:35;9.30;99.90
17988;DHT22;9119;50.932;5.342;2023-04-08T02:05:01;9.30;99.90
17988;DHT22;9119;50.932;5.342;2023-04-08T02:07:27;9.40;99.90
17988;DHT22;9119;50.932;5.342;2023-04-08T02:09:53;9.40;99.90
17988;DHT22;9119;50.932;5.342;2023-04-08T02:12:20;9.30;99.90
17988;DHT22;9119;50.932;5.342;2023-04-08T02:14:45;9.30;99.90
17988;DHT22;9119;50.932;5.342;2023-04-08T02:17:16;9.30;99.90
17988;DHT22;9119;50.932;5.342;2023-04-08T02:25:15;9.20;99.90
17988;DHT22;9119;50.932;5.342;2023-04-08T02:27:43;9.30;99.90
17988;DHT22;9119;50.932;5.342;2023-04-08T02:30:11;9.20;99.90
17988;DHT22;9119;50.932;5.342;2023-04-08T02:32:38;9.20;99.90
17988;DHT22;9119;50.932;5.342;2023-04-08T02:35:05;9.20;99.90
17988;DHT22;9119;50.932;5.342;2023-04-08T02:37:31;9.20;99.90
17988;DHT22;9119;50.932;5.342;2023-04-08T02:39:58;9.00;99.90
17988;DHT22;9119;50.932;5.342;2023-04-08T02:42:24;9.00;99.90
17988;DHT22;9119;50.932;5.342;2023-04-08T02:44:50;8.90;99.90
17988;DHT22;9119;50.932;5.342;2023-04-08T02:47:16;8.90;99.90
17988;DHT22;9119;50.932;5.342;2023-04-08T02:49:42;8.90;99.90
17988;DHT22;9119;50.932;5.342;2023-04-08T02:52:09;8.80;99.90
17988;DHT22;9119;50.932;5.342;2023-04-08T02:54:34;8.90;99.90
17988;DHT22;9119;50.932;5.342;2023-04-08T02:57:01;9.00;99.90
17988;DHT22;9119;50.932;5.342;2023-04-08T02:59:27;9.10;99.90
17988;DHT22;9119;50.932;5.342;2023-04-08T03:01:53;9.10;99.90
17988;DHT22;9119;50.932;5.342;2023-04-08T03:04:19;9.10;99.90
17988;DHT22;9119;50.932;5.342;2023-04-08T03:06:44;9.20;99.90
17988;DHT22;9119;50.932;5.342;2023-04-08T03:09:10;9.20;99.90
17988;DHT22;9119;50.932;5.342;2023-04-08T03:11:36;9.20;99.90
17988;DHT22;9119;50.932;5.342;2023-04-08T03:14:01;9.10;99.90
17988;DHT22;9119;50.932;5.342;2023-04-08T03:16:27;9.10;99.90
17988;DHT22;9119;50.932;5.342;2023-04-08T03:18:52;9.00;99.90
17988;DHT22;9119;50.932;5.342;2023-04-08T03:21:18;8.90;99.90
17988;DHT22;9119;50.932;5.342;2023-04-08T03:23:44;8.90;99.90
17988;DHT22;9119;50.932;5.342;2023-04-08T03:26:10;9.00;99.90
17988;DHT22;9119;50.932;5.342;2023-04-08T03:28:36;9.10;99.90
17988;DHT22;9119;50.932;5.342;2023-04-08T03:31:04;9.10;99.90
17988;DHT22;9119;50.932;5.342;2023-04-08T03:33:30;9.10;99.90
17988;DHT22;9119;50.932;5.342;2023-04-08T03:35:56;9.10;99.90
17988;DHT22;9119;50.932;5.342;2023-04-08T03:38:22;9.10;99.90
17988;DHT22;9119;50.932;5.342;2023-04-08T03:40:48;9.10;99.90
17988;DHT22;9119;50.932;5.342;2023-04-08T03:43:14;9.10;99.90
17988;DHT22;9119;50.932;5.342;2023-04-08T03:45:39;9.20;99.90
17988;DHT22;9119;50.932;5.342;2023-04-08T03:48:06;9.10;99.90
17988;DHT22;9119;50.932;5.342;2023-04-08T03:50:32;9.10;99.90
17988;DHT22;9119;50.932;5.342;2023-04-08T03:52:57;9.10;99.90
17988;DHT22;9119;50.932;5.342;2023-04-08T03:55:23;9.10;99.90
17988;DHT22;9119;50.932;5.342;2023-04-08T03:57:49;9.10;99.90
17988;DHT22;9119;50.932;5.342;2023-04-08T04:00:16;9.00;99.90
17988;DHT22;9119;50.932;5.342;2023-04-08T04:02:41;9.00;99.90
17988;DHT22;9119;50.932;5.342;2023-04-08T04:05:07;8.90;99.90
17988;DHT22;9119;50.932;5.342;2023-04-08T04:07:33;8.90;99.90
17988;DHT22;9119;50.932;5.342;2023-04-08T04:09:59;8.90;99.90
17988;DHT22;9119;50.932;5.342;2023-04-08T04:12:24;9.00;99.90
17988;DHT22;9119;50.932;5.342;2023-04-08T04:14:51;8.90;99.90
17988;DHT22;9119;50.932;5.342;2023-04-08T04:17:16;8.90;99.90
17988;DHT22;9119;50.932;5.342;2023-04-08T04:19:42;8.90;99.90
17988;DHT22;9119;50.932;5.342;2023-04-08T04:22:08;8.90;99.90
17988;DHT22;9119;50.932;5.342;2023-04-08T04:24:34;8.90;99.90
17988;DHT22;9119;50.932;5.342;2023-04-08T04:27:00;8.90;99.90
17988;DHT22;9119;50.932;5.342;2023-04-08T04:29:26;8.90;99.90
17988;DHT22;9119;50.932;5.342;2023-04-08T04:31:51;8.90;99.90
17988;DHT22;9119;50.932;5.342;2023-04-08T04:34:17;8.80;99.90
17988;DHT22;9119;50.932;5.342;2023-04-08T04:36:43;8.80;99.90
17988;DHT22;9119;50.932;5.342;2023-04-08T04:39:08;8.80;99.90
17988;DHT22;9119;50.932;5.342;2023-04-08T04:41:34;8.80;99.90
17988;DHT22;9119;50.932;5.342;2023-04-08T04:44:03;8.70;99.90
17988;DHT22;9119;50.932;5.342;2023-04-08T04:46:29;8.70;99.90
17988;DHT22;9119;50.932;5.342;2023-04-08T04:48:55;8.70;99.90
17988;DHT22;9119;50.932;5.342;2023-04-08T04:51:21;8.70;99.90
17988;DHT22;9119;50.932;5.342;2023-04-08T04:53:46;8.70;99.90
17988;DHT22;9119;50.932;5.342;2023-04-08T04:56:13;8.80;99.90
17988;DHT22;9119;50.932;5.342;2023-04-08T04:58:39;8.90;99.90
17988;DHT22;9119;50.932;5.342;2023-04-08T05:01:04;8.90;99.90
17988;DHT22;9119;50.932;5.342;2023-04-08T05:03:30;8.80;99.90
17988;DHT22;9119;50.932;5.342;2023-04-08T05:05:56;8.70;99.90
17988;DHT22;9119;50.932;5.342;2023-04-08T05:08:22;8.80;99.90
17988;DHT22;9119;50.932;5.342;2023-04-08T05:10:48;8.80;99.90
17988;DHT22;9119;50.932;5.342;2023-04-08T05:13:17;8.70;99.90
17988;DHT22;9119;50.932;5.342;2023-04-08T05:15:43;8.60;99.90
17988;DHT22;9119;50.932;5.342;2023-04-08T05:18:10;8.60;99.90
17988;DHT22;9119;50.932;5.342;2023-04-08T05:20:36;8.50;99.90
17988;DHT22;9119;50.932;5.342;2023-04-08T05:23:02;8.50;99.90
17988;DHT22;9119;50.932;5.342;2023-04-08T05:25:29;8.50;99.90
17988;DHT22;9119;50.932;5.342;2023-04-08T05:27:55;8.50;99.90
17988;DHT22;9119;50.932;5.342;2023-04-08T05:30:21;8.50;99.90
17988;DHT22;9119;50.932;5.342;2023-04-08T05:32:46;8.60;99.90
17988;DHT22;9119;50.932;5.342;2023-04-08T05:35:12;8.50;99.90
17988;DHT22;9119;50.932;5.342;2023-04-08T05:37:38;8.50;99.90
17988;DHT22;9119;50.932;5.342;2023-04-08T05:40:04;8.60;99.90
17988;DHT22;9119;50.932;5.342;2023-04-08T05:42:30;8.80;99.90
17988;DHT22;9119;50.932;5.342;2023-04-08T05:44:59;8.80;99.90
17988;DHT22;9119;50.932;5.342;2023-04-08T05:47:25;8.90;99.90
17988;DHT22;9119;50.932;5.342;2023-04-08T05:49:51;8.90;99.90
17988;DHT22;9119;50.932;5.342;2023-04-08T05:52:17;8.90;99.90
17988;DHT22;9119;50.932;5.342;2023-04-08T05:54:42;9.00;99.90
17988;DHT22;9119;50.932;5.342;2023-04-08T05:57:08;8.90;99.90
17988;DHT22;9119;50.932;5.342;2023-04-08T05:59:34;8.90;99.90
17988;DHT22;9119;50.932;5.342;2023-04-08T06:02:00;8.90;99.90
17988;DHT22;9119;50.932;5.342;2023-04-08T06:04:26;8.90;99.90
17988;DHT22;9119;50.932;5.342;2023-04-08T06:06:51;8.90;99.90
17988;DHT22;9119;50.932;5.342;2023-04-08T06:09:17;9.00;99.90
17988;DHT22;9119;50.932;5.342;2023-04-08T06:11:43;8.90;99.90
17988;DHT22;9119;50.932;5.342;2023-04-08T06:14:08;8.90;99.90
17988;DHT22;9119;50.932;5.342;2023-04-08T06:16:34;9.00;99.90
17988;DHT22;9119;50.932;5.342;2023-04-08T06:19:00;9.00;99.90
17988;DHT22;9119;50.932;5.342;2023-04-08T06:21:25;9.10;99.90
17988;DHT22;9119;50.932;5.342;2023-04-08T06:23:52;9.10;99.90
17988;DHT22;9119;50.932;5.342;2023-04-08T06:26:17;9.10;99.90
17988;DHT22;9119;50.932;5.342;2023-04-08T06:28:43;9.10;99.90
17988;DHT22;9119;50.932;5.342;2023-04-08T06:31:09;9.10;99.90
17988;DHT22;9119;50.932;5.342;2023-04-08T06:33:34;9.00;99.90
17988;DHT22;9119;50.932;5.342;2023-04-08T06:36:04;8.80;99.90
17988;DHT22;9119;50.932;5.342;2023-04-08T06:38:30;8.80;99.90
17988;DHT22;9119;50.932;5.342;2023-04-08T06:41:03;8.90;99.90
17988;DHT22;9119;50.932;5.342;2023-04-08T06:43:29;8.70;99.90
17988;DHT22;9119;50.932;5.342;2023-04-08T06:45:55;8.70;99.90
17988;DHT22;9119;50.932;5.342;2023-04-08T06:48:21;8.80;99.90
17988;DHT22;9119;50.932;5.342;2023-04-08T06:50:48;9.00;99.90
17988;DHT22;9119;50.932;5.342;2023-04-08T06:53:14;9.10;99.90
17988;DHT22;9119;50.932;5.342;2023-04-08T06:55:39;9.00;99.90
17988;DHT22;9119;50.932;5.342;2023-04-08T06:58:05;9.00;99.90
17988;DHT22;9119;50.932;5.342;2023-04-08T07:00:31;9.10;99.90
17988;DHT22;9119;50.932;5.342;2023-04-08T07:02:57;9.10;99.90
17988;DHT22;9119;50.932;5.342;2023-04-08T07:05:22;9.10;99.90
17988;DHT22;9119;50.932;5.342;2023-04-08T07:07:48;9.10;99.90
17988;DHT22;9119;50.932;5.342;2023-04-08T07:10:13;9.30;99.90
17988;DHT22;9119;50.932;5.342;2023-04-08T07:12:40;9.40;99.90
17988;DHT22;9119;50.932;5.342;2023-04-08T07:15:06;9.40;99.90
17988;DHT22;9119;50.932;5.342;2023-04-08T07:17:32;9.30;99.90
17988;DHT22;9119;50.932;5.342;2023-04-08T07:19:58;9.20;99.90
17988;DHT22;9119;50.932;5.342;2023-04-08T07:22:23;9.10;99.90
17988;DHT22;9119;50.932;5.342;2023-04-08T07:24:49;9.10;99.90
17988;DHT22;9119;50.932;5.342;2023-04-08T07:27:15;9.10;99.90
17988;DHT22;9119;50.932;5.342;2023-04-08T07:29:41;9.20;99.90
17988;DHT22;9119;50.932;5.342;2023-04-08T07:32:07;9.20;99.90
17988;DHT22;9119;50.932;5.342;2023-04-08T07:34:36;9.20;99.90
17988;DHT22;9119;50.932;5.342;2023-04-08T07:37:02;9.30;99.90
17988;DHT22;9119;50.932;5.342;2023-04-08T07:39:28;9.40;99.90
17988;DHT22;9119;50.932;5.342;2023-04-08T07:41:53;9.30;99.90
17988;DHT22;9119;50.932;5.342;2023-04-08T07:44:19;9.40;99.90
17988;DHT22;9119;50.932;5.342;2023-04-08T07:46:45;9.30;99.90
17988;DHT22;9119;50.932;5.342;2023-04-08T07:49:15;9.30;99.90
17988;DHT22;9119;50.932;5.342;2023-04-08T07:51:40;9.40;99.90
17988;DHT22;9119;50.932;5.342;2023-04-08T07:54:06;9.20;99.90
17988;DHT22;9119;50.932;5.342;2023-04-08T07:56:32;9.30;99.90
17988;DHT22;9119;50.932;5.342;2023-04-08T07:58:59;9.40;99.90
17988;DHT22;9119;50.932;5.342;2023-04-08T08:01:25;9.40;99.90
17988;DHT22;9119;50.932;5.342;2023-04-08T08:03:54;9.40;99.90
17988;DHT22;9119;50.932;5.342;2023-04-08T08:06:19;9.40;99.90
17988;DHT22;9119;50.932;5.342;2023-04-08T08:08:46;9.30;99.90
17988;DHT22;9119;50.932;5.342;2023-04-08T08:11:11;9.20;99.90
17988;DHT22;9119;50.932;5.342;2023-04-08T08:13:37;9.40;99.90
17988;DHT22;9119;50.932;5.342;2023-04-08T08:16:03;9.50;99.90
17988;DHT22;9119;50.932;5.342;2023-04-08T08:18:33;9.40;99.90
17988;DHT22;9119;50.932;5.342;2023-04-08T08:21:00;9.30;99.90
17988;DHT22;9119;50.932;5.342;2023-04-08T08:23:26;9.70;99.90
17988;DHT22;9119;50.932;5.342;2023-04-08T08:26:05;9.70;99.90
17988;DHT22;9119;50.932;5.342;2023-04-08T08:28:32;9.70;99.90
17988;DHT22;9119;50.932;5.342;2023-04-08T08:30:58;9.70;99.90
17988;DHT22;9119;50.932;5.342;2023-04-08T08:33:24;9.60;99.90
17988;DHT22;9119;50.932;5.342;2023-04-08T08:35:50;9.70;99.90
17988;DHT22;9119;50.932;5.342;2023-04-08T08:38:16;9.80;99.90
17988;DHT22;9119;50.932;5.342;2023-04-08T08:40:43;9.80;99.90
17988;DHT22;9119;50.932;5.342;2023-04-08T08:43:09;10.00;99.90
17988;DHT22;9119;50.932;5.342;2023-04-08T08:45:41;10.50;99.90
17988;DHT22;9119;50.932;5.342;2023-04-08T08:48:08;10.80;99.90
17988;DHT22;9119;50.932;5.342;2023-04-08T08:50:36;11.30;99.90
17988;DHT22;9119;50.932;5.342;2023-04-08T08:53:02;11.60;99.90
17988;DHT22;9119;50.932;5.342;2023-04-08T08:55:32;11.30;99.90
17988;DHT22;9119;50.932;5.342;2023-04-08T08:58:03;11.20;99.90
17988;DHT22;9119;50.932;5.342;2023-04-08T09:00:37;11.50;99.90
17988;DHT22;9119;50.932;5.342;2023-04-08T09:03:24;11.60;99.90
17988;DHT22;9119;50.932;5.342;2023-04-08T09:05:52;12.10;99.90
17988;DHT22;9119;50.932;5.342;2023-04-08T09:10:51;12.80;99.90
17988;DHT22;9119;50.932;5.342;2023-04-08T09:13:16;12.50;99.90
17988;DHT22;9119;50.932;5.342;2023-04-08T09:16:03;13.00;99.90
17988;DHT22;9119;50.932;5.342;2023-04-08T09:18:30;13.90;99.90
17988;DHT22;9119;50.932;5.342;2023-04-08T09:20:59;13.80;99.90
17988;DHT22;9119;50.932;5.342;2023-04-08T09:23:37;13.80;99.90
17988;DHT22;9119;50.932;5.342;2023-04-08T09:26:11;13.60;99.90
17988;DHT22;9119;50.932;5.342;2023-04-08T09:28:39;13.50;99.90
17988;DHT22;9119;50.932;5.342;2023-04-08T09:31:22;14.20;99.90
17988;DHT22;9119;50.932;5.342;2023-04-08T09:33:49;14.70;99.90
17988;DHT22;9119;50.932;5.342;2023-04-08T09:36:16;14.00;99.90
17988;DHT22;9119;50.932;5.342;2023-04-08T09:38:43;13.30;99.90
17988;DHT22;9119;50.932;5.342;2023-04-08T09:41:14;13.40;99.90
17988;DHT22;9119;50.932;5.342;2023-04-08T09:44:03;13.30;99.90
17988;DHT22;9119;50.932;5.342;2023-04-08T09:46:39;13.00;99.90
17988;DHT22;9119;50.932;5.342;2023-04-08T09:49:17;13.00;99.90
17988;DHT22;9119;50.932;5.342;2023-04-08T09:52:06;12.90;99.90
17988;DHT22;9119;50.932;5.342;2023-04-08T10:00:11;12.70;99.90
17988;DHT22;9119;50.932;5.342;2023-04-08T10:05:18;12.10;99.90
17988;DHT22;9119;50.932;5.342;2023-04-08T10:07:45;11.80;99.90
17988;DHT22;9119;50.932;5.342;2023-04-08T10:10:12;11.90;99.90
17988;DHT22;9119;50.932;5.342;2023-04-08T10:12:38;12.00;99.90
17988;DHT22;9119;50.932;5.342;2023-04-08T10:17:52;14.30;99.90
17988;DHT22;9119;50.932;5.342;2023-04-08T10:23:03;16.00;99.90
17988;DHT22;9119;50.932;5.342;2023-04-08T10:25:37;15.40;99.90
17988;DHT22;9119;50.932;5.342;2023-04-08T10:28:23;14.60;99.90
17988;DHT22;9119;50.932;5.342;2023-04-08T10:30:50;13.80;99.90
17988;DHT22;9119;50.932;5.342;2023-04-08T10:38:34;13.00;99.90
17988;DHT22;9119;50.932;5.342;2023-04-08T10:41:00;13.10;99.90
17988;DHT22;9119;50.932;5.342;2023-04-08T10:43:31;13.30;99.90
17988;DHT22;9119;50.932;5.342;2023-04-08T10:45:58;13.50;99.90
17988;DHT22;9119;50.932;5.342;2023-04-08T10:48:24;13.30;99.90
17988;DHT22;9119;50.932;5.342;2023-04-08T10:51:01;13.20;99.90
17988;DHT22;9119;50.932;5.342;2023-04-08T10:53:28;13.70;99.90
17988;DHT22;9119;50.932;5.342;2023-04-08T10:56:14;13.50;99.90
17988;DHT22;9119;50.932;5.342;2023-04-08T10:58:52;13.80;99.90
17988;DHT22;9119;50.932;5.342;2023-04-08T11:01:19;14.40;99.90
17988;DHT22;9119;50.932;5.342;2023-04-08T11:03:45;14.40;99.90
17988;DHT22;9119;50.932;5.342;2023-04-08T11:06:11;14.10;99.90
17988;DHT22;9119;50.932;5.342;2023-04-08T11:08:37;14.10;99.90
17988;DHT22;9119;50.932;5.342;2023-04-08T11:11:04;14.00;99.90
17988;DHT22;9119;50.932;5.342;2023-04-08T11:13:39;14.80;99.90
17988;DHT22;9119;50.932;5.342;2023-04-08T11:16:07;15.60;99.90
17988;DHT22;9119;50.932;5.342;2023-04-08T11:18:39;16.40;99.90
17988;DHT22;9119;50.932;5.342;2023-04-08T11:21:09;16.70;99.90
17988;DHT22;9119;50.932;5.342;2023-04-08T11:23:35;17.50;99.90
17988;DHT22;9119;50.932;5.342;2023-04-08T11:26:01;17.70;99.90
17988;DHT22;9119;50.932;5.342;2023-04-08T11:28:27;17.90;99.90
17988;DHT22;9119;50.932;5.342;2023-04-08T11:30:54;17.90;99.90
17988;DHT22;9119;50.932;5.342;2023-04-08T11:33:19;18.20;99.90
17988;DHT22;9119;50.932;5.342;2023-04-08T11:35:50;18.80;99.90
17988;DHT22;9119;50.932;5.342;2023-04-08T11:38:16;18.30;99.90
17988;DHT22;9119;50.932;5.342;2023-04-08T11:40:53;17.20;99.90
17988;DHT22;9119;50.932;5.342;2023-04-08T11:43:18;16.50;99.90
17988;DHT22;9119;50.932;5.342;2023-04-08T11:45:44;15.60;99.90
17988;DHT22;9119;50.932;5.342;2023-04-08T11:48:11;14.30;99.90
17988;DHT22;9119;50.932;5.342;2023-04-08T11:50:39;13.80;99.90
17988;DHT22;9119;50.932;5.342;2023-04-08T11:53:24;13.80;99.90
17988;DHT22;9119;50.932;5.342;2023-04-08T11:55:49;13.50;99.90
17988;DHT22;9119;50.932;5.342;2023-04-08T11:58:15;13.50;99.90
17988;DHT22;9119;50.932;5.342;2023-04-08T12:00:41;13.70;99.90
17988;DHT22;9119;50.932;5.342;2023-04-08T12:03:08;13.80;99.90
17988;DHT22;9119;50.932;5.342;2023-04-08T12:05:34;13.80;99.90
17988;DHT22;9119;50.932;5.342;2023-04-08T12:08:00;13.90;99.90
17988;DHT22;9119;50.932;5.342;2023-04-08T12:10:26;14.00;99.90
17988;DHT22;9119;50.932;5.342;2023-04-08T12:12:52;14.10;99.90
17988;DHT22;9119;50.932;5.342;2023-04-08T12:15:18;14.10;99.90
17988;DHT22;9119;50.932;5.342;2023-04-08T12:17:43;13.80;99.90
17988;DHT22;9119;50.932;5.342;2023-04-08T12:20:10;14.00;99.90
17988;DHT22;9119;50.932;5.342;2023-04-08T12:22:37;14.10;99.90
17988;DHT22;9119;50.932;5.342;2023-04-08T12:25:03;14.30;99.90
17988;DHT22;9119;50.932;5.342;2023-04-08T12:27:29;14.60;99.90
17988;DHT22;9119;50.932;5.342;2023-04-08T12:29:58;14.90;99.90
17988;DHT22;9119;50.932;5.342;2023-04-08T12:32:24;15.00;99.90
17988;DHT22;9119;50.932;5.342;2023-04-08T12:34:50;15.10;99.90
17988;DHT22;9119;50.932;5.342;2023-04-08T12:37:16;14.80;99.90
17988;DHT22;9119;50.932;5.342;2023-04-08T12:39:42;14.50;99.90
17988;DHT22;9119;50.932;5.342;2023-04-08T12:42:07;14.50;99.90
17988;DHT22;9119;50.932;5.342;2023-04-08T12:44:33;14.40;99.90
17988;DHT22;9119;50.932;5.342;2023-04-08T12:46:59;14.40;99.90
17988;DHT22;9119;50.932;5.342;2023-04-08T12:49:25;14.40;99.90
17988;DHT22;9119;50.932;5.342;2023-04-08T12:51:51;14.40;99.90
17988;DHT22;9119;50.932;5.342;2023-04-08T12:54:18;14.60;99.90
17988;DHT22;9119;50.932;5.342;2023-04-08T12:56:44;14.80;99.90
17988;DHT22;9119;50.932;5.342;2023-04-08T12:59:10;14.80;99.90
17988;DHT22;9119;50.932;5.342;2023-04-08T13:01:36;14.30;99.90
17988;DHT22;9119;50.932;5.342;2023-04-08T13:04:02;14.20;99.90
17988;DHT22;9119;50.932;5.342;2023-04-08T13:06:28;14.30;99.90
17988;DHT22;9119;50.932;5.342;2023-04-08T13:08:54;14.30;99.90
17988;DHT22;9119;50.932;5.342;2023-04-08T13:11:19;14.20;99.90
17988;DHT22;9119;50.932;5.342;2023-04-08T13:13:45;14.10;99.90
17988;DHT22;9119;50.932;5.342;2023-04-08T13:16:15;14.30;99.90
17988;DHT22;9119;50.932;5.342;2023-04-08T13:18:41;14.40;99.90
17988;DHT22;9119;50.932;5.342;2023-04-08T13:21:07;14.40;99.90
17988;DHT22;9119;50.932;5.342;2023-04-08T13:23:34;14.50;99.90
17988;DHT22;9119;50.932;5.342;2023-04-08T13:26:00;14.40;99.90
17988;DHT22;9119;50.932;5.342;2023-04-08T13:28:26;14.40;99.90
17988;DHT22;9119;50.932;5.342;2023-04-08T13:30:51;14.30;99.90
17988;DHT22;9119;50.932;5.342;2023-04-08T13:33:18;14.30;99.90
17988;DHT22;9119;50.932;5.342;2023-04-08T13:35:44;14.50;99.90
17988;DHT22;9119;50.932;5.342;2023-04-08T13:38:10;14.60;99.90
17988;DHT22;9119;50.932;5.342;2023-04-08T13:40:35;14.50;99.90
17988;DHT22;9119;50.932;5.342;2023-04-08T13:43:01;14.70;99.90
17988;DHT22;9119;50.932;5.342;2023-04-08T13:45:27;15.00;99.90
17988;DHT22;9119;50.932;5.342;2023-04-08T13:47:53;15.00;99.90
17988;DHT22;9119;50.932;5.342;2023-04-08T13:50:19;14.80;99.90
17988;DHT22;9119;50.932;5.342;2023-04-08T13:52:44;14.60;99.90
17988;DHT22;9119;50.932;5.342;2023-04-08T13:55:10;14.30;99.90
17988;DHT22;9119;50.932;5.342;2023-04-08T13:57:36;14.20;99.90
17988;DHT22;9119;50.932;5.342;2023-04-08T14:00:02;14.40;99.90
17988;DHT22;9119;50.932;5.342;2023-04-08T14:02:28;14.50;99.90
17988;DHT22;9119;50.932;5.342;2023-04-08T14:04:54;14.70;99.90
17988;DHT22;9119;50.932;5.342;2023-04-08T14:07:19;14.90;99.90
17988;DHT22;9119;50.932;5.342;2023-04-08T14:09:45;15.00;99.90
17988;DHT22;9119;50.932;5.342;2023-04-08T14:12:11;14.80;99.90
17988;DHT22;9119;50.932;5.342;2023-04-08T14:14:36;14.90;99.90
17988;DHT22;9119;50.932;5.342;2023-04-08T14:17:02;15.00;99.90
17988;DHT22;9119;50.932;5.342;2023-04-08T14:19:28;15.30;99.90
17988;DHT22;9119;50.932;5.342;2023-04-08T14:21:54;15.30;99.90
17988;DHT22;9119;50.932;5.342;2023-04-08T14:24:20;15.10;99.90
17988;DHT22;9119;50.932;5.342;2023-04-08T14:26:45;15.00;99.90
17988;DHT22;9119;50.932;5.342;2023-04-08T14:29:11;15.10;99.90
17988;DHT22;9119;50.932;5.342;2023-04-08T14:31:37;15.10;99.90
17988;DHT22;9119;50.932;5.342;2023-04-08T14:34:02;15.10;99.90
17988;DHT22;9119;50.932;5.342;2023-04-08T14:36:29;15.00;99.90
17988;DHT22;9119;50.932;5.342;2023-04-08T14:38:56;14.80;99.90
17988;DHT22;9119;50.932;5.342;2023-04-08T14:41:22;14.90;99.90
17988;DHT22;9119;50.932;5.342;2023-04-08T14:43:48;14.90;99.90
17988;DHT22;9119;50.932;5.342;2023-04-08T14:46:14;14.90;99.90
17988;DHT22;9119;50.932;5.342;2023-04-08T14:48:39;14.80;99.90
17988;DHT22;9119;50.932;5.342;2023-04-08T14:51:05;14.60;99.90
17988;DHT22;9119;50.932;5.342;2023-04-08T14:53:31;14.80;99.90
17988;DHT22;9119;50.932;5.342;2023-04-08T14:55:58;14.80;99.90
17988;DHT22;9119;50.932;5.342;2023-04-08T14:58:23;14.70;99.90
17988;DHT22;9119;50.932;5.342;2023-04-08T15:00:50;14.70;99.90
17988;DHT22;9119;50.932;5.342;2023-04-08T15:03:16;15.00;99.90
17988;DHT22;9119;50.932;5.342;2023-04-08T15:05:43;15.30;99.90
17988;DHT22;9119;50.932;5.342;2023-04-08T15:08:10;15.30;99.90
17988;DHT22;9119;50.932;5.342;2023-04-08T15:10:36;15.50;99.90
17988;DHT22;9119;50.932;5.342;2023-04-08T15:13:01;15.50;99.90
17988;DHT22;9119;50.932;5.342;2023-04-08T15:15:27;15.50;99.90
17988;DHT22;9119;50.932;5.342;2023-04-08T15:17:53;15.70;99.90
17988;DHT22;9119;50.932;5.342;2023-04-08T15:20:19;15.50;99.90
17988;DHT22;9119;50.932;5.342;2023-04-08T15:22:45;15.20;99.90
17988;DHT22;9119;50.932;5.342;2023-04-08T15:25:11;15.10;99.90
17988;DHT22;9119;50.932;5.342;2023-04-08T15:27:37;15.00;99.90
17988;DHT22;9119;50.932;5.342;2023-04-08T15:30:07;14.80;99.90
17988;DHT22;9119;50.932;5.342;2023-04-08T15:32:33;14.60;99.90
17988;DHT22;9119;50.932;5.342;2023-04-08T15:34:59;14.50;99.90
17988;DHT22;9119;50.932;5.342;2023-04-08T15:37:25;14.50;99.90
17988;DHT22;9119;50.932;5.342;2023-04-08T15:39:51;14.40;99.90
17988;DHT22;9119;50.932;5.342;2023-04-08T15:42:18;14.40;99.90
17988;DHT22;9119;50.932;5.342;2023-04-08T15:44:44;14.50;99.90
17988;DHT22;9119;50.932;5.342;2023-04-08T15:47:10;14.60;99.90
17988;DHT22;9119;50.932;5.342;2023-04-08T15:49:36;14.50;99.90
17988;DHT22;9119;50.932;5.342;2023-04-08T15:52:02;14.50;99.90
17988;DHT22;9119;50.932;5.342;2023-04-08T15:54:27;14.50;99.90
17988;DHT22;9119;50.932;5.342;2023-04-08T15:56:54;14.50;99.90
17988;DHT22;9119;50.932;5.342;2023-04-08T15:59:21;14.50;99.90
17988;DHT22;9119;50.932;5.342;2023-04-08T16:01:47;14.50;99.90
17988;DHT22;9119;50.932;5.342;2023-04-08T16:04:12;14.40;99.90
17988;DHT22;9119;50.932;5.342;2023-04-08T16:06:38;14.40;99.90
17988;DHT22;9119;50.932;5.342;2023-04-08T16:09:04;14.50;99.90
17988;DHT22;9119;50.932;5.342;2023-04-08T16:11:32;14.50;99.90
17988;DHT22;9119;50.932;5.342;2023-04-08T16:13:58;14.60;99.90
17988;DHT22;9119;50.932;5.342;2023-04-08T16:16:24;14.50;99.90
17988;DHT22;9119;50.932;5.342;2023-04-08T16:18:50;14.40;99.90
17988;DHT22;9119;50.932;5.342;2023-04-08T16:21:16;14.40;99.90
17988;DHT22;9119;50.932;5.342;2023-04-08T16:23:43;14.40;99.90